Time;durP1;ratioP1;P1;durP2;ratioP2;P2;SDS_P1;SDS_P2;PMS_P1;PMS_P2;Temp;Humidity;BMP_temperature;BMP_pressure;BME280_temperature;BME280_humidity;BME280_pressure;Samples;Min_cycle;Max_cycle;Signal;HPM_P1;HPM_P2
2022/08/26 05:59:20;;;;;;;;;;;;;;;20.95;63.50;99495.72;1083290;54;19945;-79
2022/08/26 06:00:21;;;;;;;;;;;;;;;21.05;63.38;99500.59;1084354;39;20546;-79
2022/08/26 06:01:27;;;;;;;;;;;;;;;21.06;63.41;99506.88;1083919;54;19970;-80
2022/08/26 06:02:28;;;;;;;;;;;;;;;21.07;63.39;99506.63;1083840;54;19953;-79
2022/08/26 06:03:33;;;;;;;;;;;;;;;21.04;63.44;99502.50;1083850;54;19981;-79
2022/08/26 06:04:34;;;;;;;;;;;;;;;21.03;63.48;99498.13;1083873;54;19982;-79
2022/08/26 06:05:39;;;;;;;;;;;;;;;21.08;63.58;99499.31;1083833;54;19981;-79
2022/08/26 06:06:40;;;;;;;;;;;;;;;21.15;63.09;99506.34;1083815;54;19981;-78
2022/08/26 06:09:01;;;;;;;;;;;;;;;21.31;62.42;99504.88;1084620;54;19973;-79
2022/08/26 06:10:02;;;;;;;;;;;;;;;21.27;62.79;99503.66;1085655;54;19961;-78
2022/08/26 06:11:07;;;;;;;;;;;;;;;21.16;62.90;99501.75;1085485;54;19947;-79
2022/08/26 06:12:09;;;;;;;;;;;;;;;21.14;63.15;99510.09;1084055;54;19950;-79
2022/08/26 06:13:13;;;;;;;;;;;;;;;21.14;63.00;99509.28;1084180;54;19966;-78
2022/08/26 06:14:20;;;;;;;;;;;;;;;21.10;63.05;99508.91;1083946;54;19947;-79
2022/08/26 06:15:21;;;;;;;;;;;;;;;21.09;63.07;99512.69;1084816;54;19958;-79
2022/08/26 06:16:25;;;;;;;;;;;;;;;21.10;63.04;99514.34;1086232;54;19927;-79
2022/08/26 06:17:29;;;;;;;;;;;;;;;21.18;63.02;99521.34;1086821;47;19962;-79
2022/08/26 06:18:33;;;;;;;;;;;;;;;21.15;62.92;99522.63;1087544;39;20384;-79
2022/08/26 06:19:37;;;;;;;;;;;;;;;21.27;62.47;99519.97;1086452;47;20478;-80
2022/08/26 06:20:42;;;;;;;;;;;;;;;21.38;62.54;99514.84;1086186;47;19942;-79
2022/08/26 06:21:47;;;;;;;;;;;;;;;21.38;62.21;99520.28;1085998;54;19950;-80
2022/08/26 06:26:42;;;;;;;;;;;;;;;21.39;62.17;99511.06;1086254;54;19950;-79
2022/08/26 06:27:43;;;;;;;;;;;;;;;21.42;62.32;99514.16;1084399;54;20026;-79
2022/08/26 06:28:47;;;;;;;;;;;;;;;21.50;61.60;99521.97;1084542;39;20348;-79
2022/08/26 06:29:53;;;;;;;;;;;;;;;21.57;61.62;99519.19;1083977;54;19947;-79
2022/08/26 06:30:54;;;;;;;;;;;;;;;21.63;61.10;99517.47;1083987;54;19946;-80
2022/08/26 06:31:59;;;;;;;;;;;;;;;21.60;61.38;99512.47;1084313;54;19950;-80
2022/08/26 06:33:00;;;;;;;;;;;;;;;21.64;61.43;99519.94;1083887;54;20042;-79
2022/08/26 06:34:04;;;;;;;;;;;;;;;21.74;61.01;99510.41;1083905;54;19946;-79
2022/08/26 06:35:05;;;;;;;;;;;;;;;21.83;60.83;99510.91;1083868;54;19946;-78
2022/08/26 06:36:09;;;;;;;;;;;;;;;21.89;60.56;99509.97;1083611;54;19939;-79
2022/08/26 06:37:11;;;;;;;;;;;;;;;21.92;60.61;99515.78;1084661;39;20343;-80
2022/08/26 06:38:15;;;;;;;;;;;;;;;22.02;60.18;99519.81;1084187;39;20540;-79
2022/08/26 06:39:17;;;;;;;;;;;;;;;22.06;60.28;99513.66;1083971;54;19947;-80
2022/08/26 06:40:22;;;;;;;;;;;;;;;22.05;60.34;99513.91;1083854;54;19998;-79
2022/08/26 06:41:24;;;;;;;;;;;;;;;21.98;60.64;99516.72;1084180;54;19946;-79
2022/08/26 06:42:28;;;;;;;;;;;;;;;22.06;60.21;99515.56;1084229;54;19972;-81
2022/08/26 06:43:32;;;;;;;;;;;;;;;22.07;60.50;99517.25;1083781;46;19972;-80
2022/08/26 06:44:33;;;;;;;;;;;;;;;22.12;60.48;99520.06;1084141;54;19957;-78
2022/08/26 06:45:40;;;;;;;;;;;;;;;22.22;60.24;99520.34;1085070;54;20006;-79
2022/08/26 06:46:42;;;;;;;;;;;;;;;22.29;59.88;99515.59;1084466;54;20038;-80
2022/08/26 06:47:45;;;;;;;;;;;;;;;22.37;59.47;99511.72;1084114;54;19957;-79
2022/08/26 06:48:49;;;;;;;;;;;;;;;22.45;59.73;99510.56;1084072;54;19958;-79
2022/08/26 06:49:53;;;;;;;;;;;;;;;22.47;59.47;99516.63;1084810;39;20344;-79
2022/08/26 06:51:04;;;;;;;;;;;;;;;22.50;59.34;99515.31;1084457;54;19950;-79
2022/08/26 06:52:07;;;;;;;;;;;;;;;22.56;59.13;99517.06;1084573;54;19946;-80
2022/08/26 06:53:08;;;;;;;;;;;;;;;22.62;59.13;99518.03;1084121;54;19946;-79
2022/08/26 06:54:12;;;;;;;;;;;;;;;22.67;59.01;99516.25;1084428;54;20022;-81
2022/08/26 06:55:14;;;;;;;;;;;;;;;22.68;59.11;99515.19;1084962;54;19947;-80
2022/08/26 06:56:19;;;;;;;;;;;;;;;22.74;59.15;99524.31;1085805;54;20028;-79
2022/08/26 06:57:20;;;;;;;;;;;;;;;22.77;58.70;99525.72;1086705;54;19957;-79
2022/08/26 06:58:24;;;;;;;;;;;;;;;22.82;58.85;99513.03;1086460;54;19946;-79
2022/08/26 06:59:25;;;;;;;;;;;;;;;22.85;58.51;99517.19;1086335;54;19951;-79
2022/08/26 07:00:31;;;;;;;;;;;;;;;22.92;58.77;99517.88;1086226;54;19977;-78
2022/08/26 07:01:39;;;;;;;;;;;;;;;23.01;58.28;99515.63;1086771;47;20056;-80
2022/08/26 07:02:40;;;;;;;;;;;;;;;22.94;58.20;99515.75;1085660;54;19943;-81
2022/08/26 07:03:44;;;;;;;;;;;;;;;23.04;58.20;99517.88;1085687;54;19969;-81
2022/08/26 07:04:45;;;;;;;;;;;;;;;23.12;58.12;99516.66;1085549;54;19951;-79
2022/08/26 07:05:49;;;;;;;;;;;;;;;23.14;57.91;99512.63;1084028;54;19947;-79
2022/08/26 07:06:53;;;;;;;;;;;;;;;23.24;57.59;99516.69;1084371;47;19969;-79
2022/08/26 07:07:58;;;;;;;;;;;;;;;23.30;57.42;99507.53;1083918;54;19962;-79
2022/08/26 07:09:00;;;;;;;;;;;;;;;23.36;57.03;99510.13;1084256;39;20974;-79
2022/08/26 07:10:04;;;;;;;;;;;;;;;23.28;57.06;99509.66;1083951;54;19947;-78
2022/08/26 07:11:05;;;;;;;;;;;;;;;23.23;57.46;99509.56;1083890;46;19966;-79
2022/08/26 07:12:09;;;;;;;;;;;;;;;23.23;57.60;99510.38;1084678;47;19939;-79
2022/08/26 07:13:11;;;;;;;;;;;;;;;23.41;57.37;99509.38;1083598;54;19950;-80
2022/08/26 07:14:15;;;;;;;;;;;;;;;23.51;56.97;99506.84;1083775;54;19946;-79
2022/08/26 07:15:17;;;;;;;;;;;;;;;23.58;56.69;99509.41;1083899;54;20032;-79
2022/08/26 07:16:21;;;;;;;;;;;;;;;23.47;56.53;99508.41;1083688;54;19980;-78
2022/08/26 07:17:28;;;;;;;;;;;;;;;23.53;56.68;99499.22;1084068;54;19951;-79
2022/08/26 07:18:31;;;;;;;;;;;;;;;23.48;56.63;99501.88;1084000;54;19962;-79
2022/08/26 07:19:32;;;;;;;;;;;;;;;23.57;56.65;99506.94;1083916;54;19939;-79
2022/08/26 07:20:38;;;;;;;;;;;;;;;23.66;56.59;99505.47;1083863;54;19958;-79
2022/08/26 07:21:41;;;;;;;;;;;;;;;23.60;56.29;99509.19;1084017;54;20042;-78
2022/08/26 07:22:43;;;;;;;;;;;;;;;23.61;56.60;99506.22;1084290;54;19943;-80
2022/08/26 07:23:47;;;;;;;;;;;;;;;23.64;56.05;99503.00;1084444;54;19958;-79
2022/08/26 07:24:51;;;;;;;;;;;;;;;23.75;56.02;99501.28;1084712;54;19973;-79
2022/08/26 07:25:52;;;;;;;;;;;;;;;23.74;56.12;99498.81;1084506;54;19953;-79
2022/08/26 07:26:59;;;;;;;;;;;;;;;23.82;55.97;99504.69;1084793;39;20333;-79
2022/08/26 07:28:03;;;;;;;;;;;;;;;24.00;55.26;99513.75;1084533;54;19946;-80
2022/08/26 07:29:13;;;;;;;;;;;;;;;24.16;55.31;99505.81;1084213;54;20432;-80
2022/08/26 07:30:15;;;;;;;;;;;;;;;24.30;54.93;99505.25;1084239;54;19958;-80
2022/08/26 07:31:19;;;;;;;;;;;;;;;24.36;54.46;99508.88;1083997;54;19946;-79
2022/08/26 07:32:20;;;;;;;;;;;;;;;24.38;54.28;99508.63;1084799;54;20459;-78
2022/08/26 07:33:26;;;;;;;;;;;;;;;24.39;54.37;99511.09;1085370;39;20346;-79
2022/08/26 07:34:27;;;;;;;;;;;;;;;24.45;53.68;99512.84;1084397;54;19950;-80
2022/08/26 07:35:31;;;;;;;;;;;;;;;24.56;53.73;99508.38;1084506;39;20341;-79
2022/08/26 07:36:32;;;;;;;;;;;;;;;24.48;53.93;99506.06;1084812;39;20426;-78
2022/08/26 07:37:36;;;;;;;;;;;;;;;24.66;53.60;99504.13;1084218;54;19954;-80
2022/08/26 07:38:38;;;;;;;;;;;;;;;24.77;53.36;99504.03;1084023;54;20432;-78
2022/08/26 07:39:43;;;;;;;;;;;;;;;24.89;53.52;99498.44;1084264;54;19972;-79
2022/08/26 07:40:46;;;;;;;;;;;;;;;25.04;52.91;99506.03;1084150;54;20037;-79
2022/08/26 07:41:48;;;;;;;;;;;;;;;25.20;52.75;99504.31;1084379;54;19947;-79
2022/08/26 07:42:51;;;;;;;;;;;;;;;25.30;52.57;99506.38;1084555;54;19947;-79
2022/08/26 07:43:53;;;;;;;;;;;;;;;25.42;52.11;99499.94;1084267;54;19951;-78
2022/08/26 07:44:56;;;;;;;;;;;;;;;25.50;52.37;99496.78;1084015;54;19946;-79
2022/08/26 07:45:57;;;;;;;;;;;;;;;25.54;51.61;99497.88;1084479;54;19957;-79
2022/08/26 07:47:01;;;;;;;;;;;;;;;25.64;51.80;99500.72;1084625;54;19953;-79
2022/08/26 07:48:05;;;;;;;;;;;;;;;25.78;51.38;99494.84;1084299;54;19946;-79
2022/08/26 07:49:09;;;;;;;;;;;;;;;25.85;50.79;99498.19;1084494;54;19962;-79
2022/08/26 07:50:13;;;;;;;;;;;;;;;25.95;51.30;99495.56;1084291;54;19977;-79
2022/08/26 07:51:15;;;;;;;;;;;;;;;25.99;49.98;99501.34;1084905;54;19975;-79
2022/08/26 07:52:19;;;;;;;;;;;;;;;26.13;50.50;99499.03;1084677;54;20477;-79
2022/08/26 07:53:23;;;;;;;;;;;;;;;26.26;50.37;99501.31;1084816;54;19951;-79
2022/08/26 07:54:27;;;;;;;;;;;;;;;26.41;49.88;99497.84;1084313;54;19950;-78
2022/08/26 07:55:30;;;;;;;;;;;;;;;26.56;49.87;99497.13;1084884;54;19950;-79
2022/08/26 07:56:31;;;;;;;;;;;;;;;26.72;49.54;99502.72;1085477;54;19946;-79
2022/08/26 07:57:35;;;;;;;;;;;;;;;26.80;48.98;99495.91;1084449;54;19958;-78
2022/08/26 07:58:36;;;;;;;;;;;;;;;26.90;48.97;99494.06;1084897;46;19998;-78
2022/08/26 07:59:40;;;;;;;;;;;;;;;26.96;48.63;99486.69;1084548;54;19951;-79
2022/08/26 08:00:41;;;;;;;;;;;;;;;27.08;48.44;99495.50;1084486;54;19938;-79
2022/08/26 08:01:45;;;;;;;;;;;;;;;27.11;48.21;99494.16;1084227;54;19951;-79
2022/08/26 08:02:49;;;;;;;;;;;;;;;27.22;48.10;99495.84;1084489;54;19970;-79
2022/08/26 08:03:52;;;;;;;;;;;;;;;27.25;47.91;99494.50;1084369;54;19946;-79
2022/08/26 08:04:58;;;;;;;;;;;;;;;27.17;47.20;99497.72;1084543;54;19946;-79
2022/08/26 08:06:00;;;;;;;;;;;;;;;27.01;47.71;99499.59;1084271;54;19954;-78
2022/08/26 08:07:03;;;;;;;;;;;;;;;26.98;48.35;99495.47;1084294;54;19950;-79
2022/08/26 08:08:05;;;;;;;;;;;;;;;26.94;47.55;99492.44;1084853;54;19973;-78
2022/08/26 08:09:09;;;;;;;;;;;;;;;27.14;48.13;99496.34;1084482;54;19946;-79
2022/08/26 08:10:14;;;;;;;;;;;;;;;27.25;47.79;99494.50;1084808;39;20613;-79
2022/08/26 08:11:15;;;;;;;;;;;;;;;27.25;47.42;99489.00;1084649;54;20033;-79
2022/08/26 08:12:19;;;;;;;;;;;;;;;27.07;47.45;99493.84;1084626;54;19958;-79
2022/08/26 08:13:20;;;;;;;;;;;;;;;27.09;47.65;99497.16;1085071;39;20430;-79
2022/08/26 08:14:24;;;;;;;;;;;;;;;27.37;47.44;99491.50;1084901;54;19947;-81
2022/08/26 08:15:27;;;;;;;;;;;;;;;27.63;46.54;99497.09;1085135;54;20440;-79
2022/08/26 08:16:31;;;;;;;;;;;;;;;27.89;46.36;99489.72;1084914;54;19981;-79
2022/08/26 08:17:33;;;;;;;;;;;;;;;28.08;45.56;99494.69;1084639;54;19943;-78
2022/08/26 08:18:36;;;;;;;;;;;;;;;28.17;45.60;99487.53;1084872;54;19951;-79
2022/08/26 08:19:38;;;;;;;;;;;;;;;28.36;45.51;99493.28;1084944;54;19946;-78
2022/08/26 08:20:44;;;;;;;;;;;;;;;28.48;44.90;99490.28;1085135;54;19947;-78
2022/08/26 08:21:45;;;;;;;;;;;;;;;28.40;45.45;99491.66;1084796;54;19946;-79
2022/08/26 08:22:50;;;;;;;;;;;;;;;28.47;45.09;99489.44;1085701;54;19957;-77
2022/08/26 08:23:51;;;;;;;;;;;;;;;28.58;44.41;99486.66;1086609;46;19950;-79
2022/08/26 08:24:55;;;;;;;;;;;;;;;28.47;44.20;99483.94;1085771;46;19951;-79
2022/08/26 08:26:00;;;;;;;;;;;;;;;28.45;44.59;99494.38;1085682;54;19939;-79
2022/08/26 08:27:03;;;;;;;;;;;;;;;28.16;45.19;99489.44;1085691;54;19947;-77
2022/08/26 08:28:05;;;;;;;;;;;;;;;28.05;45.39;99489.69;1085940;54;20064;-78
2022/08/26 08:29:09;;;;;;;;;;;;;;;28.20;45.13;99480.66;1085809;54;19957;-77
2022/08/26 08:30:10;;;;;;;;;;;;;;;28.43;44.78;99485.59;1085579;54;20832;-78
2022/08/26 08:31:20;;;;;;;;;;;;;;;28.68;44.24;99486.63;1085908;54;20489;-78
2022/08/26 08:32:21;;;;;;;;;;;;;;;28.96;44.09;99481.63;1087015;54;20031;-78
2022/08/26 08:33:25;;;;;;;;;;;;;;;29.06;43.78;99481.59;1088476;46;19927;-77
2022/08/26 08:34:27;;;;;;;;;;;;;;;29.25;43.63;99483.69;1088817;46;19969;-77
2022/08/26 08:35:31;;;;;;;;;;;;;;;29.42;43.23;99481.44;1088703;46;19958;-77
2022/08/26 08:36:35;;;;;;;;;;;;;;;29.40;42.99;99483.63;1088033;46;19927;-76
2022/08/26 08:37:39;;;;;;;;;;;;;;;29.47;42.49;99486.09;1087520;54;19998;-77
2022/08/26 08:38:40;;;;;;;;;;;;;;;29.60;42.11;99472.81;1087296;54;20013;-77
2022/08/26 08:39:44;;;;;;;;;;;;;;;29.62;42.05;99479.66;1087620;47;19943;-76
2022/08/26 08:40:46;;;;;;;;;;;;;;;29.66;42.74;99483.47;1087014;54;19946;-77
2022/08/26 08:41:55;;;;;;;;;;;;;;;29.72;42.59;99484.25;1087872;31;20482;-78
2022/08/26 08:42:58;;;;;;;;;;;;;;;29.58;42.25;99481.31;1085659;54;19953;-77
2022/08/26 08:44:03;;;;;;;;;;;;;;;29.57;42.41;99485.19;1085405;54;19954;-78
2022/08/26 08:45:07;;;;;;;;;;;;;;;29.66;42.30;99480.72;1087696;46;19946;-77
2022/08/26 08:46:12;;;;;;;;;;;;;;;29.56;42.22;99489.06;1086213;39;20518;-78
2022/08/26 08:47:16;;;;;;;;;;;;;;;29.86;42.08;99479.75;1085780;54;19950;-77
2022/08/26 08:48:21;;;;;;;;;;;;;;;30.11;41.90;99477.13;1086497;39;20348;-77
2022/08/26 08:49:24;;;;;;;;;;;;;;;30.13;41.17;99475.72;1085476;54;19946;-78
2022/08/26 08:50:31;;;;;;;;;;;;;;;30.17;41.37;99481.47;1085681;54;19950;-77
2022/08/26 08:51:39;;;;;;;;;;;;;;;30.35;40.73;99471.66;1085781;54;19950;-78
2022/08/26 08:52:47;;;;;;;;;;;;;;;30.45;40.92;99477.06;1085769;54;19955;-77
2022/08/26 08:53:58;;;;;;;;;;;;;;;30.22;40.69;99469.56;1085687;54;19946;-77
2022/08/26 08:54:59;;;;;;;;;;;;;;;30.01;40.99;99470.59;1086995;46;20522;-77
2022/08/26 08:56:09;;;;;;;;;;;;;;;29.94;41.13;99478.38;1086071;54;19952;-77
2022/08/26 08:57:11;;;;;;;;;;;;;;;30.04;41.17;99471.94;1085743;54;19946;-80
2022/08/26 08:58:17;;;;;;;;;;;;;;;30.25;40.91;99467.06;1085843;54;19947;-77
2022/08/26 08:59:23;;;;;;;;;;;;;;;29.86;41.33;99459.63;1085760;54;19950;-78
2022/08/26 09:00:26;;;;;;;;;;;;;;;29.72;41.34;99470.50;1087828;39;20396;-77
2022/08/26 09:01:38;;;;;;;;;;;;;;;29.88;41.50;99462.94;1085645;54;19945;-79
2022/08/26 09:02:44;;;;;;;;;;;;;;;30.10;41.33;99467.19;1085643;54;19958;-77
2022/08/26 09:03:51;;;;;;;;;;;;;;;30.28;40.77;99465.63;1090998;31;20618;-77
2022/08/26 09:04:57;;;;;;;;;;;;;;;30.52;40.29;99465.69;1085819;54;20014;-78
2022/08/26 09:06:03;;;;;;;;;;;;;;;30.64;39.99;99463.38;1085786;54;19947;-79
2022/08/26 09:07:09;;;;;;;;;;;;;;;30.31;40.26;99463.16;1086343;39;20097;-78
2022/08/26 09:08:13;;;;;;;;;;;;;;;30.63;40.07;99458.97;1087202;54;19942;-77
2022/08/26 09:09:22;;;;;;;;;;;;;;;30.25;40.58;99460.72;1087070;54;19950;-77
2022/08/26 09:10:29;;;;;;;;;;;;;;;30.61;40.15;99455.69;1087023;54;19942;-78
2022/08/26 09:11:33;;;;;;;;;;;;;;;30.90;39.80;99454.78;1087410;46;19965;-77
2022/08/26 09:12:34;;;;;;;;;;;;;;;31.05;39.73;99452.97;1087044;54;19957;-77
2022/08/26 09:13:39;;;;;;;;;;;;;;;31.18;39.53;99455.00;1086741;46;19966;-78
2022/08/26 09:14:41;;;;;;;;;;;;;;;31.22;39.49;99453.31;1085740;54;19947;-78
2022/08/26 09:15:52;;;;;;;;;;;;;;;31.23;39.03;99456.88;1086110;54;20022;-78
2022/08/26 09:17:02;;;;;;;;;;;;;;;31.27;38.87;99452.41;1085576;54;20013;-79
2022/08/26 09:18:08;;;;;;;;;;;;;;;31.40;39.11;99456.38;1085833;54;19947;-78
2022/08/26 09:19:17;;;;;;;;;;;;;;;31.46;38.60;99449.66;1085923;54;19950;-77
2022/08/26 09:20:33;;;;;;;;;;;;;;;31.19;38.99;99444.81;1086076;54;19950;-77
2022/08/26 09:21:37;;;;;;;;;;;;;;;31.33;38.71;99450.41;1085829;47;19950;-77
2022/08/26 09:22:43;;;;;;;;;;;;;;;31.38;38.73;99451.16;1085367;54;19950;-78
2022/08/26 09:23:45;;;;;;;;;;;;;;;31.51;38.11;99446.81;1085716;54;19947;-77
2022/08/26 09:24:49;;;;;;;;;;;;;;;31.68;38.29;99442.72;1086000;54;19953;-78
2022/08/26 09:25:52;;;;;;;;;;;;;;;31.49;38.11;99443.53;1086285;54;19943;-77
2022/08/26 09:26:57;;;;;;;;;;;;;;;31.63;38.23;99448.31;1085613;54;20022;-78
2022/08/26 09:28:01;;;;;;;;;;;;;;;31.93;38.14;99446.22;1085911;54;19953;-77
2022/08/26 09:29:07;;;;;;;;;;;;;;;31.77;37.84;99443.69;1086268;54;19946;-78
2022/08/26 09:30:11;;;;;;;;;;;;;;;31.52;37.98;99440.19;1086658;54;19951;-77
2022/08/26 09:31:21;;;;;;;;;;;;;;;31.47;38.33;99437.47;1086797;54;19954;-77
2022/08/26 09:32:24;;;;;;;;;;;;;;;31.71;37.68;99440.19;1086608;46;19939;-76
2022/08/26 09:33:29;;;;;;;;;;;;;;;31.80;37.85;99431.19;1086055;54;19950;-76
2022/08/26 09:34:33;;;;;;;;;;;;;;;32.02;37.02;99438.88;1086634;39;20071;-77
2022/08/26 09:35:35;;;;;;;;;;;;;;;31.99;36.99;99428.41;1086696;54;19958;-79
2022/08/26 09:36:40;;;;;;;;;;;;;;;31.67;37.66;99427.25;1086305;54;20014;-78
2022/08/26 09:37:48;;;;;;;;;;;;;;;31.82;37.85;99427.03;1085990;54;19962;-77
2022/08/26 09:38:50;;;;;;;;;;;;;;;31.68;37.83;99431.69;1086382;54;19942;-78
2022/08/26 09:39:53;;;;;;;;;;;;;;;31.58;37.76;99427.13;1087490;39;20427;-77
2022/08/26 09:40:56;;;;;;;;;;;;;;;31.74;37.95;99422.19;1086435;54;19958;-77
2022/08/26 09:42:05;;;;;;;;;;;;;;;31.71;37.70;99423.59;1086341;54;20002;-78
2022/08/26 09:43:18;;;;;;;;;;;;;;;31.76;37.61;99425.47;1087014;54;19942;-77
2022/08/26 09:44:19;;;;;;;;;;;;;;;31.97;37.24;99416.81;1087501;54;19942;-77
2022/08/26 09:45:29;;;;;;;;;;;;;;;32.07;37.02;99419.41;1087320;54;19943;-77
2022/08/26 09:46:30;;;;;;;;;;;;;;;32.23;36.90;99421.88;1087245;54;19951;-78
2022/08/26 09:47:35;;;;;;;;;;;;;;;32.33;36.82;99416.19;1087525;54;19973;-76
2022/08/26 09:48:38;;;;;;;;;;;;;;;32.30;36.56;99403.00;1087624;54;19946;-78
2022/08/26 09:49:43;;;;;;;;;;;;;;;32.28;36.49;99411.59;1089463;46;19959;-77
2022/08/26 09:50:54;;;;;;;;;;;;;;;32.23;36.45;99402.53;1087759;46;19950;-77
2022/08/26 09:52:12;;;;;;;;;;;;;;;32.19;37.01;99400.41;1088098;46;19945;-77
2022/08/26 09:53:20;;;;;;;;;;;;;;;32.06;37.13;99395.66;1087911;46;19942;-77
2022/08/26 09:54:23;;;;;;;;;;;;;;;31.70;37.56;99388.81;1087190;54;19946;-78
2022/08/26 09:55:27;;;;;;;;;;;;;;;31.28;37.96;99398.84;1087199;54;19957;-77
2022/08/26 09:56:32;;;;;;;;;;;;;;;31.21;38.48;99387.38;1087204;54;19966;-77
2022/08/26 09:57:34;;;;;;;;;;;;;;;31.09;38.44;99390.53;1087116;54;19970;-78
2022/08/26 09:58:39;;;;;;;;;;;;;;;30.93;38.33;99393.50;1086768;54;19958;-77
2022/08/26 09:59:41;;;;;;;;;;;;;;;30.74;38.84;99389.91;1087168;54;19943;-80
2022/08/26 10:00:55;;;;;;;;;;;;;;;30.68;38.86;99394.66;1086784;54;19950;-77
2022/08/26 10:01:56;;;;;;;;;;;;;;;30.37;39.52;99397.75;1086770;54;19958;-77
2022/08/26 10:03:01;;;;;;;;;;;;;;;30.29;39.76;99390.97;1086531;54;19950;-78
2022/08/26 10:04:05;;;;;;;;;;;;;;;30.41;39.57;99403.50;1085878;54;19953;-77
2022/08/26 10:05:11;;;;;;;;;;;;;;;30.25;40.13;99395.41;1086076;46;19962;-78
2022/08/26 10:06:22;;;;;;;;;;;;;;;30.13;40.38;99395.00;1085898;54;19947;-78
2022/08/26 10:07:37;;;;;;;;;;;;;;;30.09;40.84;99391.97;1085859;54;19950;-78
2022/08/26 10:08:44;;;;;;;;;;;;;;;29.95;40.87;99389.06;1085810;54;20029;-77
2022/08/26 10:09:46;;;;;;;;;;;;;;;29.75;40.74;99403.03;1086832;54;19942;-76
2022/08/26 10:10:51;;;;;;;;;;;;;;;29.62;41.09;99396.22;1086426;54;19962;-78
2022/08/26 10:11:54;;;;;;;;;;;;;;;29.65;41.24;99403.91;1085864;54;19951;-78
2022/08/26 10:13:02;;;;;;;;;;;;;;;29.68;41.06;99389.59;1086063;54;19946;-77
2022/08/26 10:14:06;;;;;;;;;;;;;;;29.69;41.31;99397.53;1085762;54;19953;-79
2022/08/26 10:15:12;;;;;;;;;;;;;;;29.69;41.25;99394.78;1085619;54;19942;-79
2022/08/26 10:16:16;;;;;;;;;;;;;;;29.65;41.13;99388.22;1086786;39;20450;-78
2022/08/26 10:17:23;;;;;;;;;;;;;;;29.54;41.50;99386.66;1085998;54;19938;-78
2022/08/26 10:18:27;;;;;;;;;;;;;;;29.55;41.72;99388.31;1086105;54;19943;-78
2022/08/26 10:19:34;;;;;;;;;;;;;;;29.45;41.50;99389.19;1086207;39;20380;-78
2022/08/26 10:20:37;;;;;;;;;;;;;;;29.57;41.28;99381.41;1085737;54;19969;-77
2022/08/26 10:21:46;;;;;;;;;;;;;;;29.57;41.56;99386.06;1085881;54;19977;-79
2022/08/26 10:22:54;;;;;;;;;;;;;;;29.59;41.36;99383.84;1085751;54;19938;-79
2022/08/26 10:24:03;;;;;;;;;;;;;;;29.46;41.30;99390.03;1085573;54;19953;-78
2022/08/26 10:25:06;;;;;;;;;;;;;;;29.38;41.53;99394.22;1085530;54;19950;-77
2022/08/26 10:26:13;;;;;;;;;;;;;;;29.41;41.34;99388.94;1085819;54;20002;-78
2022/08/26 10:27:18;;;;;;;;;;;;;;;29.40;42.48;99384.56;1085966;54;19946;-77
2022/08/26 10:28:24;;;;;;;;;;;;;;;29.42;41.77;99384.28;1085649;54;19947;-78
2022/08/26 10:29:33;;;;;;;;;;;;;;;29.48;41.83;99379.53;1085547;54;20029;-77
2022/08/26 10:30:39;;;;;;;;;;;;;;;29.50;41.84;99397.44;1085720;54;19981;-79
2022/08/26 10:31:46;;;;;;;;;;;;;;;29.52;41.83;99389.69;1085659;54;20026;-78
2022/08/26 10:32:49;;;;;;;;;;;;;;;29.48;41.92;99387.78;1085528;54;19947;-78
2022/08/26 10:33:53;;;;;;;;;;;;;;;29.30;41.67;99389.28;1085807;54;19965;-78
2022/08/26 10:34:54;;;;;;;;;;;;;;;29.08;42.41;99399.59;1085991;54;19950;-79
2022/08/26 10:36:00;;;;;;;;;;;;;;;28.97;42.57;99394.41;1085509;54;19950;-79
2022/08/26 10:37:07;;;;;;;;;;;;;;;28.94;42.55;99395.81;1085560;54;19951;-78
2022/08/26 10:38:13;;;;;;;;;;;;;;;29.04;42.29;99393.00;1085270;54;19950;-78
2022/08/26 10:39:24;;;;;;;;;;;;;;;29.14;42.47;99389.41;1085209;54;20050;-78
2022/08/26 10:40:29;;;;;;;;;;;;;;;29.23;42.37;99381.34;1085248;54;19950;-77
2022/08/26 10:41:32;;;;;;;;;;;;;;;29.28;42.61;99378.56;1085289;54;19973;-77
2022/08/26 10:42:38;;;;;;;;;;;;;;;29.26;42.34;99381.59;1085033;54;19972;-78
2022/08/26 10:43:44;;;;;;;;;;;;;;;29.26;42.59;99378.03;1085225;54;19954;-78
2022/08/26 10:44:49;;;;;;;;;;;;;;;29.19;42.38;99385.78;1087045;39;20636;-78
2022/08/26 10:45:54;;;;;;;;;;;;;;;29.18;42.46;99373.13;1085600;54;19956;-77
2022/08/26 10:46:58;;;;;;;;;;;;;;;29.17;42.77;99383.31;1085301;54;19951;-78
2022/08/26 10:48:03;;;;;;;;;;;;;;;29.14;42.75;99372.88;1085321;54;19970;-78
2022/08/26 10:49:08;;;;;;;;;;;;;;;29.03;42.73;99377.59;1085298;54;19953;-77
2022/08/26 10:50:12;;;;;;;;;;;;;;;29.03;42.70;99379.56;1085175;54;19958;-78
2022/08/26 10:51:15;;;;;;;;;;;;;;;29.07;42.78;99378.69;1085419;54;19953;-77
2022/08/26 10:52:20;;;;;;;;;;;;;;;29.05;43.01;99377.31;1085644;54;19953;-78
2022/08/26 10:53:22;;;;;;;;;;;;;;;29.00;42.77;99377.34;1085113;54;19954;-79
2022/08/26 10:54:33;;;;;;;;;;;;;;;28.95;42.66;99380.97;1085303;54;19951;-79
2022/08/26 10:55:37;;;;;;;;;;;;;;;28.88;43.07;99380.44;1085309;54;19951;-79
2022/08/26 10:56:45;;;;;;;;;;;;;;;28.82;43.41;99376.06;1085492;54;19947;-77
2022/08/26 10:57:50;;;;;;;;;;;;;;;28.77;43.12;99376.91;1086115;54;19977;-77
2022/08/26 10:59:00;;;;;;;;;;;;;;;28.75;43.17;99371.69;1085379;54;20515;-79
2022/08/26 11:01:40;;;;;;;;;;;;;;;28.79;43.05;99369.22;1085910;54;19943;-79
2022/08/26 11:01:48;;;;;;;;;;;;;;;28.81;43.11;99369.75;1085627;54;20034;-79
2022/08/26 11:02:53;;;;;;;;;;;;;;;28.82;43.40;99370.56;1085440;54;19947;-77
2022/08/26 11:03:59;;;;;;;;;;;;;;;28.85;43.36;99364.50;1085687;54;20460;-77
2022/08/26 11:05:04;;;;;;;;;;;;;;;28.90;43.68;99367.25;1086179;39;20380;-79
2022/08/26 11:06:19;;;;;;;;;;;;;;;28.91;42.94;99374.38;1086216;54;19980;-78
2022/08/26 11:07:33;;;;;;;;;;;;;;;29.00;42.94;99371.84;1085999;54;19947;-78
2022/08/26 11:08:46;;;;;;;;;;;;;;;29.06;42.86;99378.97;1085534;54;20018;-78
2022/08/26 11:09:53;;;;;;;;;;;;;;;29.10;42.87;99382.81;1085859;54;19950;-78
2022/08/26 11:10:55;;;;;;;;;;;;;;;29.11;42.51;99379.75;1085540;54;19947;-78
2022/08/26 11:11:59;;;;;;;;;;;;;;;29.15;42.68;99373.69;1085618;54;19970;-79
2022/08/26 11:13:02;;;;;;;;;;;;;;;29.17;42.53;99377.00;1085542;54;20006;-79
2022/08/26 11:14:06;;;;;;;;;;;;;;;29.11;43.29;99385.25;1085449;54;19951;-78
2022/08/26 11:15:10;;;;;;;;;;;;;;;29.05;43.01;99380.91;1085730;54;19950;-79
2022/08/26 11:16:32;;;;;;;;;;;;;;;29.09;42.73;99373.75;1085825;54;20034;-78
2022/08/26 11:17:54;;;;;;;;;;;;;;;29.08;42.72;99377.59;1085591;54;19946;-78
2022/08/26 11:18:57;;;;;;;;;;;;;;;29.14;42.92;99369.28;1085886;39;20155;-79
2022/08/26 11:20:01;;;;;;;;;;;;;;;29.18;42.61;99367.63;1085659;54;19951;-78
2022/08/26 11:21:25;;;;;;;;;;;;;;;29.19;42.72;99366.53;1085587;54;19946;-78
2022/08/26 11:22:30;;;;;;;;;;;;;;;29.15;43.22;99373.69;1085862;54;19946;-80
2022/08/26 11:23:45;;;;;;;;;;;;;;;29.11;43.24;99362.44;1085988;54;19958;-79
2022/08/26 11:25:05;;;;;;;;;;;;;;;29.11;43.37;99371.50;1085932;54;20382;-79
2022/08/26 11:26:13;;;;;;;;;;;;;;;29.08;43.25;99369.34;1087057;39;20364;-78
2022/08/26 11:27:32;;;;;;;;;;;;;;;29.08;43.09;99363.00;1086176;54;19946;-79
2022/08/26 11:28:37;;;;;;;;;;;;;;;29.03;43.36;99361.09;1085958;54;19953;-78
2022/08/26 11:29:54;;;;;;;;;;;;;;;28.97;43.48;99359.50;1086157;54;19965;-79
2022/08/26 11:30:58;;;;;;;;;;;;;;;28.96;43.06;99352.34;1085775;54;19951;-77
2022/08/26 11:31:59;;;;;;;;;;;;;;;28.94;43.18;99360.06;1085478;54;19951;-78
2022/08/26 11:33:03;;;;;;;;;;;;;;;28.95;43.06;99359.75;1085403;54;19957;-77
2022/08/26 11:34:07;;;;;;;;;;;;;;;28.90;42.98;99356.25;1085167;54;19957;-78
2022/08/26 11:35:10;;;;;;;;;;;;;;;28.88;43.13;99358.44;1086135;46;19958;-79
2022/08/26 11:36:30;;;;;;;;;;;;;;;28.88;43.13;99356.50;1085606;54;19946;-78
2022/08/26 11:37:36;;;;;;;;;;;;;;;28.83;43.31;99355.72;1085726;54;19947;-77
2022/08/26 11:38:40;;;;;;;;;;;;;;;28.89;43.14;99338.09;1085650;54;19962;-78
2022/08/26 11:39:49;;;;;;;;;;;;;;;28.93;42.94;99351.00;1086131;54;19969;-78
2022/08/26 11:41:04;;;;;;;;;;;;;;;28.93;43.24;99355.66;1086390;54;20042;-77
2022/08/26 11:42:18;;;;;;;;;;;;;;;28.92;43.57;99359.50;1085650;54;20452;-78
2022/08/26 11:43:22;;;;;;;;;;;;;;;28.91;43.47;99352.38;1085518;54;20530;-78